Hauptseite
METAR-TAF:

METAR-TAF

Flughäfen :

Flugplatz Les Eplatures

La Chaux-de-Fonds, Schweiz

Breite: 47-05-03N, Länge: 006-47-37E, Höhe: 1027 m

Beobachtung

Neuester Wetterbericht von vor 32 Minuten, um 18:20 UTC
Wind 1 kt aus West
Temperatur 9°C
Luftfeuchtigkeit 71%
Luftdruck 1025 hPa
Sichtweite 10 km oder mehr

METAR: LSGC 191820Z AUTO 28001KT 9999 NCD 09/04 Q1025

Zeit: 20:52 (18:52 UTC)

Prognose

Neuester Wetterbericht von vor 4 Stunden und 27 Minuten, um 14:25 UTC
Gültige Prognose vom 19 um 15 UTC bis 19 um 24 UTC
Wind 4 kt aus West/Südwest
Sichtweite 10 km oder mehr
keine Wolken unter 1500 m und keine Kumulonimbus oder Gewitterwolken

TAF: LSGC 191425Z 1915/1924 24004KT CAVOK

Wetterbeobachtungen und Prognosen von mehr als 4000 Flughäfen (METAR und TAF Bericht).

Die verfügbaren Stationen werden durch gelbe und rote Markierungen auf der Karte dargestellt.

Führen Sie die Maus auf sie, um den Namen der Station zu sehen.

Darauf klicken, um die Beobachtung von Wetterbeobachtungen und Prognosen zu sehen.

Um die Karte zu ändern : klicken Sie auf den grünen Tasten mit einem schwarzen Kreuz Zum Vergrößern, auf den grünen Button mit einem Gedankenstrich zu verkleinern, oder auf die grünen Pfeile für benachbarte Karten.


METAR-TAF: